Tiempo atmosférico en la estación meteorológica de VilagarcÍa de Arousa, Pontevedra (32 m.)



Fecha
DESCASC
Temp. máxima en grados centígrados (hora)
DESCASC
Temp. mínima en grados centígrados (hora)
DESCASC
Temp. media en grados centígrados
DESCASC
Racha de viento máxima en m/sg (hora)
DESCASC
Velocidad máxima media en intervalos de 10 minutos(hora)
DESCASC
Precipitaciones diarias en mm
DESCASC
Precipitaciones de 00:00 a 06:00 en mm
DESCASC
Precipitaciones de 06:00 a 12:00 en mm
DESCASC
Precipitaciones de 12:00 a 18:00 en mm
DESCASC
Precipitaciones de 18:00 a 24:00 en mm
DESCASC
18-08-2019 24.5 (16:50) 17.2 (23:59) 20.9 10.28 (03:20) 5.28 (05:20) 8.8 8.6 0.2 0 0
17-08-2019 24.3 (14:30) 19.7 (00:00) 22 9.72 (14:10) 6.11 (15:40) 0 0 0 0 0
16-08-2019 23.9 (17:40) 14 (07:20) 18.9 8.33 (17:10) 5.56 (17:10) 0 0 0 0 0
15-08-2019 28.5 (18:10) 16.2 (00:00) 22.4 6.67 (18:30) 4.72 (18:50) 0 0 0 0 0
14-08-2019 24.6 (19:00) 15.7 (00:00) 20.2 5.28 (16:50) 3.33 (16:50) 0 0 0 0 0
13-08-2019 24.6 (16:50) 12.8 (00:00) 18.7 7.5 (09:30) 4.72 (17:00) 0 0 0 0 0
12-08-2019 23.1 (14:50) 12 (00:00) 17.6 8.06 (12:50) 4.17 (13:00) 0 0 0 0 0
11-08-2019 22.2 (16:50) 13.4 (00:00) 17.8 9.17 (17:00) 6.39 (17:30) 0 0 0 0 0
10-08-2019 22.6 (17:40) 17.3 (00:00) 19.9 8.33 (16:00) 4.72 (18:50) 0.6 0.6 0 0 0
09-08-2019 22.3 (15:20) 18.3 (00:00) 20.3 15.56 (09:00) 7.78 (13:00) 0 0 0 0 0
08-08-2019 23.2 (15:30) 18.3 (00:00) 20.8 17.78 (19:50) 8.61 (18:10) 39.8 3.6 4.8 13.8 17.6
07-08-2019 21.5 (19:00) 18.6 (00:00) 20.1 12.78 (19:30) 6.39 (19:20) 11.6 0 2 7.6 2
06-08-2019 21.5 (13:10) 18.5 (00:00) 20 6.94 (14:30) 3.89 (19:20) 0 0 0 0 0
05-08-2019 24.8 (15:10) 14.9 (00:00) 19.8 8.33 (18:00) 5 (17:50) 0 0 0 0 0
04-08-2019 25 (17:30) 18 (00:00) 21.5 8.89 (15:40) 5.28 (15:30) 0 0 0 0 0
03-08-2019 25.1 (17:00) 15.4 (00:00) 20.3 8.89 (17:10) 5.56 (18:20) 0 0 0 0 0
02-08-2019 25.6 (16:20) 14.8 (00:00) 20.2 7.5 (16:40) 4.44 (14:30) 0 0 0 0 0
01-08-2019 28.6 (17:10) 16.5 (00:00) 22.6 10.28 (19:10) 6.11 (19:20) 0 0 0 0 0
31-07-2019 26.4 (17:00) 13.9 (00:00) 20.1 9.44 (18:50) 5 (18:20) 0 0 0 0 0
30-07-2019 23.6 (17:00) 12.4 (00:00) 18 8.89 (18:20) 5.83 (18:50) 0 0 0 0 0
29-07-2019 21.4 (16:20) 17 (00:00) 19.2 12.5 (11:30) 6.67 (14:20) 2.8 1.4 1.4 0 0
28-07-2019 23.1 (15:30) 13.4 (00:00) 18.3 7.5 (20:30) 4.44 (17:40) 0 0 0 0 0
27-07-2019 24.8 (17:40) 15.7 (00:00) 20.2 9.72 (23:10) 5 (20:20) 16.2 3.2 5.6 7.4 0
26-07-2019 22.4 (16:40) 15.7 (00:00) 19 8.61 (17:40) 5.28 (14:40) 0.2 0 0 0 0.2
25-07-2019 22.2 (19:10) 18.3 (00:00) 20.3 10 (11:20) 5.56 (11:30) 4.2 1 3 0.2 0
24-07-2019 24.7 (18:50) 14.6 (00:00) 19.7 8.89 (17:30) 5 (17:20) 0 0 0 0 0

Gráficas

Temp. máximas Temp. mínimas Temp. medias Precipitaciones Rachas de viento máximas Velocidades máximas media en intervalos de 10 minutos

Datos horarios

Fecha y hora oficial Temperatura (ºC) Velocidad del viento (km/h) Dirección del viento Racha (km/h) Dirección de racha Precipitación (mm) Presión (hPa) Tendencia (hPa) Humedad (%)
2019-08-22 23:00:00 24 4 Este 8 Sur 0 -- -- 58
2019-08-22 22:00:00 25.7 4 Sudeste 7 Sur 0 -- -- 55
2019-08-22 21:00:00 29.4 4 Sudeste 13 Oeste 0 -- -- 47
2019-08-22 20:00:00 30.9 8 Sudoeste 13 Sudoeste 0 -- -- 42
2019-08-22 19:00:00 32.2 8 Oeste 13 Oeste 0 -- -- 36
2019-08-22 18:00:00 32.8 9 Oeste 15 Oeste 0 -- -- 31
2019-08-22 17:00:00 32.3 10 Noroeste 13 Noroeste 0 -- -- 33
2019-08-22 16:00:00 30.8 8 Noroeste 15 Oeste 0 -- -- 41
2019-08-22 15:00:00 30.3 9 Noroeste 14 Noroeste 0 -- -- 36
2019-08-22 14:00:00 28.8 6 Norte 10 Noroeste 0 -- -- 53
2019-08-22 13:00:00 27 5 Norte 9 Noroeste 0 -- -- 57
2019-08-22 12:00:00 24.4 4 Noroeste 12 Noroeste 0 -- -- 67
2019-08-22 11:00:00 22 4 Nordeste 8 Noroeste 0 -- -- 73
2019-08-22 10:00:00 19.7 2 Este 10 Sudeste 0 -- -- 80
2019-08-22 09:00:00 16.2 4 Este 8 Este 0 -- -- 91
2019-08-22 08:00:00 15.3 2 Sur 5 Sur 0 -- -- 94
2019-08-22 07:00:00 14.6 4 Sudeste 5 Sudeste 0 -- -- 93
2019-08-22 06:00:00 15.2 4 Sudeste 5 Sudoeste 0 -- -- 91
2019-08-22 05:00:00 16.2 2 Sudoeste 7 Sur 0 -- -- 89
2019-08-22 04:00:00 17.5 0 Calma 13 Norte 0 -- -- 84
2019-08-22 03:00:00 18.6 4 Norte 22 Norte 0 -- -- 80
2019-08-22 02:00:00 19.3 12 Norte 21 Norte 0 -- -- 77
2019-08-22 01:00:00 20.1 7 Norte 15 Norte 0 -- -- 73
2019-08-22 00:00:00 21.1 5 Norte 31 Nordeste 0 -- -- 70
2019-08-21 23:00:00 22.4 15 Este 38 Nordeste 0 -- -- 65
2019-08-21 22:00:00 23.1 12 Sudeste 30 Este 0 -- -- 69
2019-08-21 21:00:00 25.5 7 Norte 27 Norte 0 -- -- 64
2019-08-21 20:00:00 27.3 12 Norte 33 Nordeste 0 -- -- 58
2019-08-21 19:00:00 28.7 15 Norte 28 Norte 0 -- -- 52
2019-08-21 18:00:00 29.6 13 Norte 36 Norte 0 -- -- 48
2019-08-21 17:00:00 29.9 14 Norte 28 Nordeste 0 -- -- 43
2019-08-21 16:00:00 29.6 14 Nordeste 27 Nordeste 0 -- -- 46
2019-08-21 15:00:00 28.7 13 Norte 27 Norte 0 -- -- 49
2019-08-21 14:00:00 26.9 13 Norte 25 Norte 0 -- -- 55
2019-08-21 13:00:00 25.2 12 Norte 22 Norte 0 -- -- 58
2019-08-21 12:00:00 23.2 9 Norte 16 Norte 0 -- -- 64
2019-08-21 11:00:00 21.6 4 Nordeste 14 Norte 0 -- -- 69
2019-08-21 10:00:00 19.6 3 Sudeste 7 Nordeste 0 -- -- 74
2019-08-21 09:00:00 17.2 0 Calma 8 Noroeste 0 -- -- 84
2019-08-21 08:00:00 16.6 4 Oeste 7 Sudoeste 0 -- -- 84
2019-08-21 07:00:00 17.3 4 Norte 9 Norte 0 -- -- 81
2019-08-21 06:00:00 18 3 Norte 13 Norte 0 -- -- 79
2019-08-21 05:00:00 18.4 9 Norte 16 Norte 0 -- -- 78
2019-08-21 04:00:00 18.7 4 Norte 13 Nordeste 0 -- -- 77
2019-08-21 03:00:00 18.8 8 Nordeste 18 Nordeste 0 -- -- 75
2019-08-21 02:00:00 19.2 7 Nordeste 18 Nordeste 0 -- -- 74
2019-08-21 01:00:00 19.6 7 Nordeste 19 Nordeste 0 -- -- 71
2019-08-21 00:00:00 20 11 Nordeste 26 Este 0 -- -- 69
2019-08-20 23:00:00 20.7 13 Nordeste 24 Este 0 -- -- 67
2019-08-20 22:00:00 21.4 8 Nordeste 31 Nordeste 0 -- -- 67
2019-08-20 21:00:00 23 10 Nordeste 30 Nordeste 0 -- -- 64
2019-08-20 20:00:00 24.6 16 Norte 31 Nordeste 0 -- -- 58
2019-08-20 19:00:00 25.7 14 Norte 37 Norte 0 -- -- 53
2019-08-20 18:00:00 26.4 16 Norte 31 Norte 0 -- -- 51
2019-08-20 17:00:00 26.5 18 Norte 32 Norte 0 -- -- 51
2019-08-20 16:00:00 26.5 16 Nordeste 32 Nordeste 0 -- -- 50
2019-08-20 15:00:00 25.8 14 Nordeste 30 Nordeste 0 -- -- 53
2019-08-20 14:00:00 24.8 14 Nordeste 32 Este 0 -- -- 55
2019-08-20 13:00:00 23.2 18 Nordeste 34 Este 0 -- -- 61
2019-08-20 12:00:00 21.7 19 Este 37 Nordeste 0 -- -- 63
2019-08-20 11:00:00 20.5 15 Nordeste 32 Nordeste 0 -- -- 67
2019-08-20 10:00:00 18.5 11 Nordeste 26 Este 0 -- -- 74
2019-08-20 09:00:00 17.1 6 Norte 29 Nordeste 0 -- -- 78
2019-08-20 08:00:00 16.2 11 Nordeste 30 Norte 0 -- -- 81
2019-08-20 07:00:00 16.1 14 Nordeste 30 Nordeste 0 -- -- 82
2019-08-20 06:00:00 16.1 13 Nordeste 30 Nordeste 0 -- -- 82
2019-08-20 05:00:00 16.5 16 Norte 45 Nordeste 0 -- -- 80
2019-08-20 04:00:00 16.4 19 Nordeste 36 Nordeste 0 -- -- 80
2019-08-20 03:00:00 16.4 19 Nordeste 33 Nordeste 0 -- -- 80
2019-08-20 02:00:00 16.6 15 Nordeste 30 Nordeste 0 -- -- 78
2019-08-20 01:00:00 16.9 17 Nordeste 32 Nordeste 0 -- -- 76
2019-08-20 00:00:00 17.2 14 Nordeste 24 Este 0 -- -- 76
2019-08-19 23:00:00 17.9 12 Nordeste 30 Nordeste 0 -- -- 74
2019-08-19 22:00:00 18.6 10 Nordeste 30 Norte 0 -- -- 73
2019-08-19 21:00:00 19.9 11 Nordeste 37 Norte 0 -- -- 68
2019-08-19 20:00:00 20.8 19 Norte 36 Nordeste 0 -- -- 64
2019-08-19 19:00:00 21.8 20 Nordeste 42 Nordeste 0 -- -- 58
2019-08-19 18:00:00 22.5 19 Norte 35 Norte 0 -- -- 56
2019-08-19 17:00:00 23.6 17 Norte 32 Este 0 -- -- 54
2019-08-19 16:00:00 23.8 15 Nordeste 33 Norte 0 -- -- 50
2019-08-19 15:00:00 22.9 15 Norte 31 Norte 0 -- -- 52
2019-08-19 14:00:00 21.9 18 Norte 32 Norte 0 -- -- 54
2019-08-19 13:00:00 21.3 14 Nordeste 30 Nordeste 0 -- -- 58
2019-08-19 12:00:00 20 14 Norte 26 Nordeste 0 -- -- 65
2019-08-19 11:00:00 17.7 13 Norte 24 Nordeste 0 -- -- 75
2019-08-19 10:00:00 16.1 12 Nordeste 22 Norte 0 -- -- 80
2019-08-19 09:00:00 15.2 10 Nordeste 18 Nordeste 0 -- -- 83
2019-08-19 08:00:00 15.5 10 Nordeste 19 Nordeste 0 -- -- 81
2019-08-19 07:00:00 15.3 12 Nordeste 22 Nordeste 0 -- -- 82
2019-08-19 06:00:00 15.1 9 Nordeste 22 Nordeste 0 -- -- 83
2019-08-19 05:00:00 15.4 10 Norte 17 Norte 0 -- -- 82
2019-08-19 04:00:00 15.6 8 Norte 18 Norte 0 -- -- 82
2019-08-19 03:00:00 15.7 8 Norte 18 Norte 0 -- -- 82
2019-08-19 02:00:00 16.2 6 Noroeste 11 Norte 0 -- -- 81
2019-08-19 01:00:00 16.6 4 Noroeste 13 Sudoeste 0 -- -- 78
2019-08-19 00:00:00 17.2 3 Sudoeste 22 Norte 0 -- -- 74
2019-08-18 23:00:00 17.6 8 Nordeste 25 Norte 0 -- -- 73
2019-08-18 22:00:00 18.6 10 Norte 23 Norte 0 -- -- 70
2019-08-18 21:00:00 20.2 12 Norte 28 Norte 0 -- -- 66
2019-08-18 20:00:00 21.4 12 Norte 28 Norte 0 -- -- 62
2019-08-18 19:00:00 22.9 10 Norte 25 Norte 0 -- -- 61
2019-08-18 18:00:00 23.7 8 Noroeste 21 Noroeste 0 -- -- 60
2019-08-18 17:00:00 24.3 14 Noroeste 21 Oeste 0 -- -- 55
2019-08-18 16:00:00 23.8 6 Noroeste 21 Norte 0 -- -- 58
2019-08-18 15:00:00 22.9 11 Nordeste 22 Nordeste 0 -- -- 60
2019-08-18 14:00:00 21.5 9 Nordeste 23 Este 0 -- -- 70
2019-08-18 13:00:00 20.1 9 Nordeste 21 Nordeste 0 -- -- 77
2019-08-18 12:00:00 19.2 11 Nordeste 23 Norte 0 -- -- 81
2019-08-18 11:00:00 18.5 8 Nordeste 24 Norte 0 -- -- 84
2019-08-18 10:00:00 18.3 6 Nordeste 18 Nordeste 0 -- -- 92
2019-08-18 09:00:00 18.2 10 Norte 17 Norte 0 -- -- 91
2019-08-18 08:00:00 18.3 6 Nordeste 26 Nordeste 0 -- -- 92
2019-08-18 07:00:00 18.7 7 Noroeste 18 Oeste 0.2 -- -- 99
2019-08-18 06:00:00 19.5 12 Sudoeste 35 Sudoeste 1.4 -- -- 99
2019-08-18 05:00:00 20.3 15 Sudoeste 32 Sudoeste 6 -- -- 99
2019-08-18 04:00:00 20.6 14 Sudoeste 37 Sur 1.2 -- -- 98
2019-08-18 03:00:00 21.1 13 Sudoeste 27 Sur 0 -- -- 95
2019-08-18 02:00:00 21 10 Sudoeste 26 Sudoeste 0 -- -- 94
2019-08-18 01:00:00 21 13 Sudoeste 30 Sudoeste 0 -- -- 94
2019-08-18 00:00:00 21.2 10 Sudoeste 26 Sudoeste 0 -- -- 91
2019-08-17 23:00:00 21.3 10 Sudoeste 20 Sudoeste 0 -- -- 91
2019-08-17 22:00:00 21.4 9 Sur 24 Sur 0 -- -- 90
2019-08-17 21:00:00 21.9 10 Sudoeste 25 Sur 0 -- -- 88
2019-08-17 20:00:00 22.3 11 Sudoeste 27 Sudoeste 0 -- -- 87
2019-08-17 19:00:00 21.9 14 Sudoeste 26 Sudoeste 0 -- -- 89
2019-08-17 18:00:00 22.1 14 Sudoeste 29 Sudoeste 0 -- -- 91
2019-08-17 17:00:00 22.7 15 Sudoeste 33 Sudoeste 0 -- -- 85
2019-08-17 16:00:00 23.6 18 Sudoeste 33 Sudoeste 0 -- -- 78
2019-08-17 15:00:00 23.9 18 Sudoeste 35 Sudoeste 0 -- -- 79
2019-08-17 14:00:00 23.4 15 Sudoeste 30 Sudoeste 0 -- -- 80
2019-08-17 13:00:00 22.5 17 Sudoeste 30 Sudoeste 0 -- -- 83
2019-08-17 12:00:00 22 15 Sudoeste 27 Sudoeste 0 -- -- 84
2019-08-17 11:00:00 21.7 11 Sudoeste 19 Sudoeste 0 -- -- 85
2019-08-17 10:00:00 21 7 Sur 20 Sur 0 -- -- 88
2019-08-17 09:00:00 20.4 5 Sur 9 Sudeste 0 -- -- 91
2019-08-17 08:00:00 19.9 3 Sudeste 17 Sur 0 -- -- 90
2019-08-17 07:00:00 20.2 11 Sur 18 Sur 0 -- -- 89
2019-08-17 06:00:00 20.1 7 Sur 18 Sur 0 -- -- 88
2019-08-17 05:00:00 19.9 6 Sur 17 Sudoeste 0 -- -- 90
2019-08-17 04:00:00 19.9 7 Sur 15 Sur 0 -- -- 91
2019-08-17 03:00:00 19.8 11 Sur 20 Sur 0 -- -- 90
2019-08-17 02:00:00 19.9 6 Sudoeste 12 Sur 0 -- -- 90
2019-08-17 01:00:00 20 6 Sur 12 Sudoeste 0 -- -- 90
2019-08-17 00:00:00 19.7 6 Sur 12 Sudoeste 0 -- -- 92
2019-08-16 23:00:00 19.7 6 Sudoeste 12 Sudoeste 0 -- -- 92
2019-08-16 22:00:00 20.3 4 Sur 17 Sudoeste 0 -- -- 88
2019-08-16 21:00:00 20.9 12 Sudoeste 23 Sudoeste 0 -- -- 86
2019-08-16 20:00:00 21.2 15 Sudoeste 27 Oeste 0 -- -- 84
2019-08-16 19:00:00 22.6 14 Sudoeste 30 Sudoeste 0 -- -- 78
2019-08-16 18:00:00 23.5 16 Sudoeste 30 Sudoeste 0 -- -- 73
2019-08-16 17:00:00 23.3 16 Sudoeste 28 Sudoeste 0 -- -- 72
2019-08-16 16:00:00 22.9 19 Sudoeste 29 Oeste 0 -- -- 73
2019-08-16 15:00:00 23.4 15 Sudoeste 23 Sudoeste 0 -- -- 69
2019-08-16 14:00:00 23.2 10 Oeste 20 Oeste 0 -- -- 68
2019-08-16 13:00:00 22.5 9 Noroeste 14 Noroeste 0 -- -- 66
2019-08-16 12:00:00 20.9 4 Noroeste 12 Oeste 0 -- -- 70
2019-08-16 11:00:00 20.4 2 Sudeste 8 Este 0 -- -- 73
2019-08-16 10:00:00 17.9 3 Este 6 Oeste 0 -- -- 83
2019-08-16 09:00:00 15.2 2 Noroeste 5 Oeste 0 -- -- 91
2019-08-16 08:00:00 14.1 0 Calma 9 Sudeste 0 -- -- 94
2019-08-16 07:00:00 14.2 5 Este 7 Este 0 -- -- 93
2019-08-16 06:00:00 15.3 3 Oeste 8 Oeste 0 -- -- 91
2019-08-16 05:00:00 15.4 0 Calma 6 Sur 0 -- -- 90
2019-08-16 04:00:00 15.7 2 Sudeste 6 Sur 0 -- -- 88
2019-08-16 03:00:00 16.5 0 Calma 8 Sur 0 -- -- 85
2019-08-16 02:00:00 17.3 3 Sudeste 16 Noroeste 0 -- -- 82
2019-08-16 01:00:00 18.9 9 Norte 16 Norte 0 -- -- 75
2019-08-16 00:00:00 20.3 3 Norte 15 Norte 0 -- -- 72
2019-08-15 23:00:00 22 10 Norte 16 Norte 0 -- -- 66
2019-08-15 22:00:00 23.4 7 Nordeste 23 Norte 0 -- -- 63
2019-08-15 21:00:00 25.5 10 Nordeste 24 Nordeste 0 -- -- 57
2019-08-15 20:00:00 27.3 11 Nordeste 23 Noroeste 0 -- -- 52
2019-08-15 19:00:00 28.1 15 Noroeste 24 Noroeste 0 -- -- 53
2019-08-15 18:00:00 28.3 10 Noroeste 21 Oeste 0 -- -- 53
2019-08-15 17:00:00 28 11 Oeste 22 Oeste 0 -- -- 53
2019-08-15 16:00:00 27.2 10 Oeste 23 Nordeste 0 -- -- 54
2019-08-15 15:00:00 27 11 Norte 22 Norte 0 -- -- 54
2019-08-15 14:00:00 25.5 11 Norte 21 Norte 0 -- -- 60
2019-08-15 13:00:00 24 12 Norte 23 Norte 0 -- -- 63
2019-08-15 12:00:00 22 11 Norte 23 Norte 0 -- -- 71
2019-08-15 11:00:00 20.9 11 Norte 19 Norte 0 -- -- 74
2019-08-15 10:00:00 19 7 Norte 13 Norte 0 -- -- 81
2019-08-15 09:00:00 17.5 3 Este 18 Norte 0 -- -- 86
2019-08-15 08:00:00 16.7 4 Norte 10 Norte 0 -- -- 89
2019-08-15 07:00:00 16.2 4 Oeste 18 Norte 0 -- -- 92
2019-08-15 06:00:00 16.7 4 Norte 12 Nordeste 0 -- -- 90
2019-08-15 05:00:00 16.5 0 Calma 9 Norte 0 -- -- 94
2019-08-15 04:00:00 16.8 0 Calma 4 Sudeste 0 -- -- 95
2019-08-15 03:00:00 17.6 0 Calma 5 Sudeste 0 -- -- 95
2019-08-15 02:00:00 18.3 3 Sudeste 5 Este 0 -- -- 96
2019-08-15 01:00:00 18.4 0 Calma 8 Sur 0 -- -- 94
2019-08-15 00:00:00 18.8 0 Calma 6 Sudeste 0 -- -- 93
2019-08-14 23:00:00 20.3 4 Oeste 7 Oeste 0 -- -- 90
2019-08-14 22:00:00 21.6 3 Sudoeste 9 Sudoeste 0 -- -- 85
2019-08-14 21:00:00 22.7 7 Sudoeste 14 Sudoeste 0 -- -- 82
2019-08-14 20:00:00 23.3 9 Sudoeste 18 Sudoeste 0 -- -- 80
2019-08-14 19:00:00 24.6 9 Sudoeste 15 Sudoeste 0 -- -- 75
2019-08-14 18:00:00 23.2 9 Sudoeste 17 Oeste 0 -- -- 80
2019-08-14 17:00:00 23.8 12 Oeste 19 Oeste 0 -- -- 76
2019-08-14 16:00:00 22.9 9 Oeste 15 Oeste 0 -- -- 76
2019-08-14 15:00:00 21.8 9 Oeste 15 Noroeste 0 -- -- 78
2019-08-14 14:00:00 21 10 Noroeste 15 Noroeste 0 -- -- 79
2019-08-14 13:00:00 21 5 Sudoeste 10 Sur 0 -- -- 81
2019-08-14 12:00:00 18.8 4 Oeste 9 Oeste 0 -- -- 82
2019-08-14 11:00:00 18.5 5 Noroeste 9 Noroeste 0 -- -- 77
2019-08-14 10:00:00 18.2 0 Calma 8 Sudeste 0 -- -- 79
2019-08-14 09:00:00 17.1 3 Este 10 Sudeste 0 -- -- 83
2019-08-14 08:00:00 16.2 4 Este 9 Sudeste 0 -- -- 87
2019-08-14 07:00:00 15.9 4 Este 10 Sudeste 0 -- -- 88
2019-08-14 06:00:00 15.9 3 Noroeste 10 Este 0 -- -- 87
2019-08-14 05:00:00 15.9 6 Sudeste 9 Sudeste 0 -- -- 87
2019-08-14 04:00:00 16.8 5 Oeste 10 Noroeste 0 -- -- 86
2019-08-14 03:00:00 17 2 Sur 4 Sur 0 -- -- 83
2019-08-14 02:00:00 17.4 3 Sudoeste 6 Sudoeste 0 -- -- 80
2019-08-14 01:00:00 18.2 0 Calma 7 Sur 0 -- -- 76
2019-08-14 00:00:00 18.9 2 Nordeste 8 Este 0 -- -- 73
2019-08-13 23:00:00 19.9 3 Este 16 Norte 0 -- -- 71
2019-08-13 22:00:00 21.3 5 Este 22 Noroeste 0 -- -- 71
2019-08-13 21:00:00 23.2 10 Oeste 16 Noroeste 0 -- -- 66
2019-08-13 20:00:00 24 9 Oeste 18 Oeste 0 -- -- 60
2019-08-13 19:00:00 24.1 12 Oeste 23 Oeste 0 -- -- 60
2019-08-13 18:00:00 24.3 15 Oeste 27 Oeste 0 -- -- 60
2019-08-13 17:00:00 24.4 17 Oeste 25 Oeste 0 -- -- 56
2019-08-13 16:00:00 24.3 13 Oeste 22 Oeste 0 -- -- 56
2019-08-13 15:00:00 24.3 9 Noroeste 17 Norte 0 -- -- 50
2019-08-13 14:00:00 22.6 11 Norte 19 Norte 0 -- -- 58
2019-08-13 13:00:00 21.3 12 Norte 22 Norte 0 -- -- 63
2019-08-13 12:00:00 19.7 10 Norte 24 Norte 0 -- -- 66
2019-08-13 11:00:00 18.2 8 Norte 16 Nordeste 0 -- -- 71
2019-08-13 10:00:00 16.7 9 Nordeste 27 Norte 0 -- -- 74
2019-08-13 09:00:00 14.5 6 Nordeste 21 Norte 0 -- -- 84
2019-08-13 08:00:00 12.9 4 Oeste 9 Nordeste 0 -- -- 90
2019-08-13 07:00:00 13.2 7 Norte 19 Norte 0 -- -- 89
2019-08-13 06:00:00 13.8 10 Norte 21 Norte 0 -- -- 87
2019-08-13 05:00:00 14.6 13 Norte 25 Nordeste 0 -- -- 82
2019-08-13 04:00:00 15 11 Nordeste 23 Nordeste 0 -- -- 81
2019-08-13 03:00:00 15.4 11 Norte 19 Norte 0 -- -- 79
2019-08-13 02:00:00 16 9 Nordeste 19 Norte 0 -- -- 77
2019-08-13 01:00:00 16.5 6 Noroeste 17 Noroeste 0 -- -- 74
2019-08-13 00:00:00 17.2 8 Noroeste 18 Oeste 0 -- -- 70
2019-08-12 23:00:00 17.6 5 Norte 19 Sudeste 0 -- -- 72
2019-08-12 22:00:00 18.8 3 Este 19 Norte 0 -- -- 67
2019-08-12 21:00:00 20.4 12 Norte 28 Nordeste 0 -- -- 61
2019-08-12 20:00:00 22.1 13 Nordeste 24 Nordeste 0 -- -- 53
2019-08-12 19:00:00 22.4 11 Nordeste 22 Norte 0 -- -- 54
2019-08-12 18:00:00 22.6 10 Norte 21 Nordeste 0 -- -- 51
2019-08-12 17:00:00 21.7 14 Norte 25 Nordeste 0 -- -- 56
2019-08-12 16:00:00 21.9 13 Norte 25 Nordeste 0 -- -- 54
2019-08-12 15:00:00 22.8 10 Norte 23 Este 0 -- -- 53
2019-08-12 14:00:00 20.8 10 Norte 29 Este 0 -- -- 61
2019-08-12 13:00:00 20.6 15 Nordeste 29 Este 0 -- -- 53
2019-08-12 12:00:00 19.5 11 Norte 21 Nordeste 0 -- -- 69
2019-08-12 11:00:00 17.2 6 Norte 11 Norte 0 -- -- 83
2019-08-12 10:00:00 16.8 7 Sudeste 12 Este 0 -- -- 84
2019-08-12 09:00:00 14.1 0 Calma 3 Sur 0 -- -- 96
2019-08-12 08:00:00 12.1 0 Calma 4 Sudeste 0 -- -- 98
2019-08-12 07:00:00 12.4 3 Sudeste 4 Sudeste 0 -- -- 97
2019-08-12 06:00:00 12.7 3 Este 5 Sudeste 0 -- -- 96
2019-08-12 05:00:00 13 3 Este 5 Sudeste 0 -- -- 95
2019-08-12 04:00:00 13.5 2 Sudeste 5 Sudeste 0 -- -- 94
2019-08-12 03:00:00 14.1 3 Sudeste 6 Sudeste 0 -- -- 91
2019-08-12 02:00:00 14.5 3 Sudeste 5 Sur 0 -- -- 91
2019-08-12 01:00:00 15.5 4 Sur 5 Sudeste 0 -- -- 88
2019-08-12 00:00:00 17 3 Este 9 Norte 0 -- -- 82
2019-08-11 23:00:00 18.2 7 Noroeste 15 Noroeste 0 -- -- 76
2019-08-11 22:00:00 18.9 9 Noroeste 18 Oeste 0 -- -- 73
2019-08-11 21:00:00 20 10 Oeste 26 Oeste 0 -- -- 68
2019-08-11 20:00:00 20.3 17 Oeste 26 Oeste 0 -- -- 66
2019-08-11 19:00:00 21 18 Oeste 29 Oeste 0 -- -- 65
2019-08-11 18:00:00 21.4 18 Oeste 31 Oeste 0 -- -- 61
2019-08-11 17:00:00 21.7 19 Oeste 33 Oeste 0 -- -- 59
2019-08-11 16:00:00 21.4 16 Oeste 32 Noroeste 0 -- -- 62
2019-08-11 15:00:00 21.1 17 Oeste 29 Oeste 0 -- -- 68
2019-08-11 14:00:00 20.8 14 Oeste 28 Sudoeste 0 -- -- 67
2019-08-11 13:00:00 20.1 14 Oeste 25 Oeste 0 -- -- 69
2019-08-11 12:00:00 19 12 Oeste 22 Oeste 0 -- -- 77
2019-08-11 11:00:00 18.5 5 Oeste 12 Sudoeste 0 -- -- 85
2019-08-11 10:00:00 17.3 4 Este 7 Este 0 -- -- 87
2019-08-11 09:00:00 15.2 4 Este 9 Sudeste 0 -- -- 95
2019-08-11 08:00:00 13.5 4 Sur 6 Sudeste 0 -- -- 97
2019-08-11 07:00:00 13.7 4 Sudeste 6 Sur 0 -- -- 97
2019-08-11 06:00:00 14 3 Sudeste 7 Sudeste 0 -- -- 96
2019-08-11 05:00:00 14.3 6 Sudeste 10 Sudeste 0 -- -- 96
2019-08-11 04:00:00 14.7 2 Sudeste 5 Este 0 -- -- 93
2019-08-11 03:00:00 15.6 0 Calma 5 Sudeste 0 -- -- 92
2019-08-11 02:00:00 16.2 4 Sudeste 8 Sur 0 -- -- 89
2019-08-11 01:00:00 16.9 3 Sur 5 Sur 0 -- -- 86
2019-08-11 00:00:00 17.6 0 Calma 6 Nordeste 0 -- -- 83
2019-08-10 23:00:00 18.5 4 Norte 13 Oeste 0 -- -- 79
2019-08-10 22:00:00 19.2 7 Noroeste 18 Oeste 0 -- -- 75
2019-08-10 21:00:00 19.7 8 Oeste 15 Sudoeste 0 -- -- 75
2019-08-10 20:00:00 20.3 9 Oeste 22 Oeste 0 -- -- 72
2019-08-10 19:00:00 21.3 13 Oeste 26 Oeste 0 -- -- 69
2019-08-10 18:00:00 22.3 13 Oeste 22 Oeste 0 -- -- 62
2019-08-10 17:00:00 22.2 14 Oeste 24 Oeste 0 -- -- 64
2019-08-10 16:00:00 22.1 13 Oeste 30 Oeste 0 -- -- 65
2019-08-10 15:00:00 21.9 14 Oeste 25 Noroeste 0 -- -- 64
2019-08-10 14:00:00 21.5 13 Oeste 24 Sudoeste 0 -- -- 68
2019-08-10 13:00:00 21 12 Oeste 24 Sudoeste 0 -- -- 69
2019-08-10 12:00:00 20.5 10 Oeste 18 Oeste 0 -- -- 73
2019-08-10 11:00:00 19.6 8 Sudoeste 21 Oeste 0 -- -- 83
2019-08-10 10:00:00 19 8 Sur 13 Sudoeste 0 -- -- 91
2019-08-10 09:00:00 17.7 5 Sudoeste 13 Sur 0 -- -- 96
2019-08-10 08:00:00 17.4 6 Sur 14 Sudoeste 0 -- -- 96
2019-08-10 07:00:00 17.3 5 Sudoeste 12 Sur 0 -- -- 95
2019-08-10 06:00:00 17.5 7 Sur 15 Sudoeste 0 -- -- 95
2019-08-10 05:00:00 17.9 8 Sudoeste 17 Sur 0 -- -- 95
2019-08-10 04:00:00 18 10 Sudoeste 19 Sudoeste 0 -- -- 95
2019-08-10 03:00:00 18.1 9 Sudoeste 18 Sur 0 -- -- 95
2019-08-10 02:00:00 18 10 Sudoeste 18 Sudoeste 0 -- -- 96
2019-08-10 01:00:00 18.3 10 Sudoeste 19 Sudoeste 0.6 -- -- 93
2019-08-10 00:00:00 18.5 10 Sudoeste 21 Sur 0 -- -- 93
2019-08-09 23:00:00 18.6 11 Sudoeste 23 Sudoeste 0 -- -- 92
2019-08-09 22:00:00 19.1 12 Sudoeste 33 Sudoeste 0 -- -- 90
2019-08-09 21:00:00 20.2 17 Sudoeste 31 Sudoeste 0 -- -- 86
2019-08-09 20:00:00 20.8 17 Sudoeste 31 Sudoeste 0 -- -- 83
2019-08-09 19:00:00 21.1 17 Sudoeste 35 Sudoeste 0 -- -- 81
2019-08-09 18:00:00 21.5 14 Sudoeste 32 Sudoeste 0 -- -- 82
2019-08-09 17:00:00 21.6 17 Sudoeste 46 Sudoeste 0 -- -- 82
2019-08-09 16:00:00 21.7 20 Sudoeste 44 Sudoeste 0 -- -- 80
2019-08-09 15:00:00 21.8 22 Sudoeste 47 Sudoeste 0 -- -- 81
2019-08-09 14:00:00 21.4 23 Sudoeste 48 Sudoeste 0 -- -- 82
2019-08-09 13:00:00 20.9 28 Sudoeste 48 Sudoeste 0 -- -- 86
2019-08-09 12:00:00 21.2 22 Sudoeste 49 Sudoeste 0 -- -- 86
2019-08-09 11:00:00 20.3 26 Sudoeste 49 Sudoeste 0 -- -- 91
2019-08-09 10:00:00 20.1 17 Sudoeste 50 Sudoeste 0 -- -- 91
2019-08-09 09:00:00 19.8 24 Sudoeste 56 Sudoeste 0 -- -- 92
2019-08-09 08:00:00 19.7 19 Sudoeste 44 Sudoeste 0 -- -- 92
2019-08-09 07:00:00 19.6 20 Sudoeste 41 Sudoeste 0 -- -- 93
2019-08-09 06:00:00 19.4 18 Sudoeste 43 Sur 0 -- -- 94
2019-08-09 05:00:00 19.4 19 Sudoeste 44 Sudoeste 0 -- -- 96
2019-08-09 04:00:00 19.5 19 Sudoeste 35 Sudoeste 0 -- -- 96
2019-08-09 03:00:00 18.9 17 Sudoeste 36 Sudoeste 0 -- -- 98
2019-08-09 02:00:00 18.9 15 Sudoeste 33 Sudoeste 0 -- -- 96
2019-08-09 01:00:00 18.8 15 Sudoeste 31 Sudoeste 0 -- -- 96
2019-08-09 00:00:00 18.3 17 Sudoeste 36 Sudoeste 1.2 -- -- 98
2019-08-08 23:00:00 19 13 Sudoeste 44 Oeste 1.8 -- -- 99
2019-08-08 22:00:00 20.3 26 Sudoeste 64 Sudoeste 3.8 -- -- 96
2019-08-08 21:00:00 21.3 25 Sudoeste 54 Sudoeste 10.6 -- -- 98
2019-08-08 20:00:00 22 30 Sur 64 Sur 0 -- -- 95
2019-08-08 19:00:00 21.5 25 Sur 62 Sur 0.2 -- -- 96
2019-08-08 18:00:00 21.3 28 Sudoeste 57 Sur 11.6 -- -- 98
2019-08-08 17:00:00 22.7 28 Sur 57 Sudoeste 0.6 -- -- 90
2019-08-08 16:00:00 22.9 27 Sudoeste 58 Sudoeste 0 -- -- 89
2019-08-08 15:00:00 22.9 24 Sur 45 Sudoeste 0 -- -- 92
2019-08-08 14:00:00 22 18 Sudoeste 40 Sur 0.2 -- -- 97
2019-08-08 13:00:00 21.4 19 Sudoeste 39 Sur 1.4 -- -- 99
2019-08-08 12:00:00 21.5 19 Sudoeste 35 Sudoeste 4.4 -- -- 99
2019-08-08 11:00:00 22.3 13 Sur 27 Sudoeste 0 -- -- 97
2019-08-08 10:00:00 20.8 15 Sudoeste 31 Sudoeste 0.4 -- -- 99
2019-08-08 09:00:00 20.2 14 Sur 28 Sur 0 -- -- 100
2019-08-08 08:00:00 20.4 10 Sudoeste 31 Sudoeste 0 -- -- 100
2019-08-08 07:00:00 20.3 14 Sudoeste 31 Sur 0 -- -- 99
2019-08-08 06:00:00 20.3 15 Sudoeste 32 Sudoeste 0.2 -- -- 100
2019-08-08 05:00:00 20.3 14 Sudoeste 34 Sudoeste 0.2 -- -- 100
2019-08-08 04:00:00 20.5 17 Sur 36 Sur 0.6 -- -- 99
2019-08-08 03:00:00 20.2 13 Sur 35 Sur 0.2 -- -- 99
2019-08-08 02:00:00 19.9 15 Sur 29 Sudoeste 1.2 -- -- 99
2019-08-08 01:00:00 19.7 12 Sur 29 Sur 1.2 -- -- 98
2019-08-08 00:00:00 19.5 10 Sur 33 Sur 0.6 -- -- 97
2019-08-07 23:00:00 19.1 13 Sur 24 Sur 0.4 -- -- 98
2019-08-07 22:00:00 18.6 2 Nordeste 13 Sudeste 0.4 -- -- 98
2019-08-07 21:00:00 19.3 10 Sudeste 27 Sur 0.6 -- -- 94
2019-08-07 20:00:00 19.8 14 Sur 46 Sudoeste 0 -- -- 90
2019-08-07 19:00:00 21.5 12 Sur 30 Sudoeste 0 -- -- 93
2019-08-07 18:00:00 21.3 11 Sur 30 Sur 0.8 -- -- 96
2019-08-07 17:00:00 20.7 16 Sur 35 Sur 0.8 -- -- 96
2019-08-07 16:00:00 20.5 14 Sur 33 Sudoeste 1 -- -- 97
2019-08-07 15:00:00 20.6 16 Sur 35 Sur 1.2 -- -- 96
2019-08-07 14:00:00 20.3 10 Sur 21 Sudoeste 3.4 -- -- 98
2019-08-07 13:00:00 20.6 10 Sur 20 Sur 0.4 -- -- 95
2019-08-07 12:00:00 20.6 5 Sudeste 12 Sudeste 0.4 -- -- 95
2019-08-07 11:00:00 20.1 4 Sur 9 Sudeste 0.8 -- -- 98
2019-08-07 10:00:00 19.7 5 Sudeste 9 Sudeste 0.6 -- -- 97
2019-08-07 09:00:00 19.6 3 Sudeste 9 Sur 0.2 -- -- 95
2019-08-07 08:00:00 19.2 4 Sudeste 8 Sudeste 0 -- -- 96
2019-08-07 07:00:00 19 0 Calma 4 Este 0 -- -- 96
2019-08-07 06:00:00 19.2 0 Calma 3 Oeste 0 -- -- 95
2019-08-07 05:00:00 19.2 2 Sur 4 Sudoeste 0 -- -- 95
2019-08-07 04:00:00 19.4 3 Sudoeste 8 Sudoeste 0 -- -- 95
2019-08-07 03:00:00 19.6 4 Sudoeste 6 Sudoeste 0 -- -- 94
2019-08-07 02:00:00 19.6 3 Sur 10 Sur 0 -- -- 94
2019-08-07 01:00:00 19.3 5 Sur 10 Sur 0 -- -- 96
2019-08-07 00:00:00 19.5 4 Sudeste 7 Sudeste 0 -- -- 95
2019-08-06 23:00:00 19.6 4 Sudeste 10 Sudoeste 0 -- -- 94
2019-08-06 22:00:00 20 3 Sudoeste 7 Oeste 0 -- -- 93
2019-08-06 21:00:00 19.9 3 Oeste 19 Oeste 0 -- -- 93
2019-08-06 20:00:00 19.8 12 Oeste 19 Oeste 0 -- -- 94
2019-08-06 19:00:00 21.2 9 Oeste 15 Oeste 0 -- -- 89
2019-08-06 18:00:00 21.3 4 Sur 18 Sudoeste 0 -- -- 89
2019-08-06 17:00:00 20.9 8 Sur 20 Sudoeste 0 -- -- 92
2019-08-06 16:00:00 20.5 6 Sudoeste 18 Sudoeste 0 -- -- 93
2019-08-06 15:00:00 20.6 8 Oeste 25 Sudoeste 0 -- -- 92
2019-08-06 14:00:00 20.6 13 Sudoeste 22 Sudoeste 0 -- -- 87
2019-08-06 13:00:00 21.4 7 Oeste 17 Oeste 0 -- -- 84
2019-08-06 12:00:00 20.4 11 Noroeste 17 Oeste 0 -- -- 90
2019-08-06 11:00:00 20.5 4 Noroeste 13 Sudoeste 0 -- -- 89
2019-08-06 10:00:00 19.8 5 Sudoeste 11 Sudoeste 0 -- -- 92
2019-08-06 09:00:00 19.6 3 Oeste 8 Sudoeste 0 -- -- 93
2019-08-06 08:00:00 18.9 3 Este 6 Este 0 -- -- 94
2019-08-06 07:00:00 18.6 2 Sur 5 Sudoeste 0 -- -- 94
2019-08-06 06:00:00 19.2 2 Sudoeste 6 Sudeste 0 -- -- 92
2019-08-06 05:00:00 19.8 2 Sudeste 9 Este 0 -- -- 90
2019-08-06 04:00:00 19.9 5 Este 9 Sudoeste 0 -- -- 88
2019-08-06 03:00:00 19.9 5 Sudoeste 12 Sudoeste 0 -- -- 89
2019-08-06 02:00:00 19.9 5 Sudoeste 16 Oeste 0 -- -- 93
2019-08-06 01:00:00 20.2 6 Sudoeste 12 Sudoeste 0 -- -- 92
2019-08-06 00:00:00 20.3 6 Sudoeste 15 Sudoeste 0 -- -- 91
2019-08-05 23:00:00 20.5 6 Sudoeste 15 Sudoeste 0 -- -- 90
2019-08-05 22:00:00 21.2 5 Sur 14 Sur 0 -- -- 86
2019-08-05 21:00:00 22.1 10 Sudoeste 22 Sudoeste 0 -- -- 83
2019-08-05 20:00:00 22 13 Sudoeste 25 Sudoeste 0 -- -- 82
2019-08-05 19:00:00 23 14 Oeste 27 Sudoeste 0 -- -- 78
2019-08-05 18:00:00 23.3 15 Oeste 30 Sudoeste 0 -- -- 75
2019-08-05 17:00:00 23.7 16 Sudoeste 26 Sudoeste 0 -- -- 73
2019-08-05 16:00:00 24.1 15 Oeste 27 Sudoeste 0 -- -- 68
2019-08-05 15:00:00 24.4 14 Sudoeste 22 Oeste 0 -- -- 64
2019-08-05 14:00:00 24.4 11 Oeste 22 Oeste 0 -- -- 58
2019-08-05 13:00:00 22.4 16 Noroeste 21 Noroeste 0 -- -- 68
2019-08-05 12:00:00 21.2 10 Noroeste 13 Noroeste 0 -- -- 74
2019-08-05 11:00:00 20.3 5 Noroeste 9 Oeste 0 -- -- 75
2019-08-05 10:00:00 19.7 2 Este 6 Este 0 -- -- 78
2019-08-05 09:00:00 17.4 3 Este 6 Este 0 -- -- 87
2019-08-05 08:00:00 15.2 4 Este 10 Sudeste 0 -- -- 95
2019-08-05 07:00:00 15 4 Sudeste 8 Sudeste 0 -- -- 95
2019-08-05 06:00:00 15.3 3 Este 4 Sudeste 0 -- -- 94
2019-08-05 05:00:00 15.6 2 Sudeste 4 Sur 0 -- -- 93
2019-08-05 04:00:00 15.9 2 Sudeste 4 Sudeste 0 -- -- 92
2019-08-05 03:00:00 16.3 2 Sudeste 5 Sudeste 0 -- -- 91
2019-08-05 02:00:00 17 4 Sudeste 9 Sudeste 0 -- -- 89
2019-08-05 01:00:00 17.7 8 Sudeste 10 Sudeste 0 -- -- 84
2019-08-05 00:00:00 18 5 Sudeste 8 Este 0 -- -- 84
2019-08-04 23:00:00 18.7 4 Este 13 Sudeste 0 -- -- 80
2019-08-04 22:00:00 19.9 8 Sudeste 15 Sudeste 0 -- -- 73
2019-08-04 21:00:00 22.8 8 Sur 16 Sudoeste 0 -- -- 63
2019-08-04 20:00:00 22.8 12 Sudoeste 26 Sudoeste 0 -- -- 65
2019-08-04 19:00:00 23.9 15 Sudoeste 24 Sudoeste 0 -- -- 62
2019-08-04 18:00:00 24.4 13 Sudoeste 27 Oeste 0 -- -- 60
2019-08-04 17:00:00 24.5 14 Oeste 27 Oeste 0 -- -- 60
2019-08-04 16:00:00 24.7 16 Oeste 32 Oeste 0 -- -- 61
2019-08-04 15:00:00 24.2 15 Oeste 26 Sudoeste 0 -- -- 61
2019-08-04 14:00:00 24.1 14 Oeste 24 Oeste 0 -- -- 63
2019-08-04 13:00:00 23.9 14 Noroeste 21 Noroeste 0 -- -- 68
2019-08-04 12:00:00 22.7 11 Noroeste 17 Noroeste 0 -- -- 74
2019-08-04 11:00:00 21.4 11 Noroeste 15 Noroeste 0 -- -- 79
2019-08-04 10:00:00 20.5 5 Norte 11 Noroeste 0 -- -- 85
2019-08-04 09:00:00 19.8 4 Noroeste 12 Norte 0 -- -- 88
2019-08-04 08:00:00 19.1 2 Sudeste 9 Norte 0 -- -- 89
2019-08-04 07:00:00 18.3 2 Nordeste 7 Noroeste 0 -- -- 90
2019-08-04 06:00:00 19.2 2 Noroeste 7 Norte 0 -- -- 87
2019-08-04 05:00:00 19.9 0 Calma 8 Noroeste 0 -- -- 84
2019-08-04 04:00:00 20.2 4 Noroeste 18 Norte 0 -- -- 83
2019-08-04 03:00:00 20.5 6 Norte 18 Nordeste 0 -- -- 80
2019-08-04 02:00:00 20.6 9 Nordeste 17 Nordeste 0 -- -- 80
2019-08-04 01:00:00 20.6 2 Oeste 6 Este 0 -- -- 88
2019-08-04 00:00:00 20.5 4 Sudeste 10 Este 0 -- -- 88
2019-08-03 23:00:00 20.7 6 Este 13 Este 0 -- -- 87
2019-08-03 22:00:00 21.2 4 Sudeste 14 Sudoeste 0 -- -- 85
2019-08-03 21:00:00 23.2 6 Sur 21 Sudoeste 0 -- -- 77
2019-08-03 20:00:00 24 11 Sur 28 Sudoeste 0 -- -- 73
2019-08-03 19:00:00 23.6 20 Sudoeste 32 Sudoeste 0 -- -- 72
2019-08-03 18:00:00 24.4 19 Sudoeste 32 Sudoeste 0 -- -- 68
2019-08-03 17:00:00 25.1 17 Sudoeste 28 Sudoeste 0 -- -- 65
2019-08-03 16:00:00 24.3 17 Sudoeste 27 Sudoeste 0 -- -- 68
2019-08-03 15:00:00 23.8 17 Sudoeste 27 Sudoeste 0 -- -- 69
2019-08-03 14:00:00 24.1 10 Oeste 18 Noroeste 0 -- -- 62
2019-08-03 13:00:00 22.6 14 Oeste 19 Oeste 0 -- -- 71
2019-08-03 12:00:00 21.6 8 Noroeste 13 Noroeste 0 -- -- 74
2019-08-03 11:00:00 20.4 4 Norte 9 Norte 0 -- -- 81
2019-08-03 10:00:00 19.4 0 Calma 7 Este 0 -- -- 84
2019-08-03 09:00:00 17.3 5 Este 8 Este 0 -- -- 91
2019-08-03 08:00:00 15.6 5 Sudeste 9 Sudeste 0 -- -- 97
2019-08-03 07:00:00 15.9 2 Sudeste 7 Sudeste 0 -- -- 95
2019-08-03 06:00:00 16.1 3 Sudeste 8 Sudeste 0 -- -- 95
2019-08-03 05:00:00 16.2 2 Sudeste 6 Sudeste 0 -- -- 94
2019-08-03 04:00:00 16.9 0 Calma 6 Este 0 -- -- 92
2019-08-03 03:00:00 17.4 4 Este 6 Nordeste 0 -- -- 89
2019-08-03 02:00:00 18.2 3 Sur 13 Norte 0 -- -- 87
2019-08-03 01:00:00 19.5 5 Norte 12 Norte 0 -- -- 85
2019-08-03 00:00:00 20 0 Calma 9 Este 0 -- -- 83
2019-08-02 23:00:00 20.7 5 Sudeste 10 Este 0 -- -- 81
2019-08-02 22:00:00 22.6 3 Este 6 Sudeste 0 -- -- 75
2019-08-02 21:00:00 25 4 Sur 20 Sudoeste 0 -- -- 65
2019-08-02 20:00:00 24.9 13 Sudoeste 23 Sudoeste 0 -- -- 64
2019-08-02 19:00:00 25.1 15 Sudoeste 24 Oeste 0 -- -- 61
2019-08-02 18:00:00 25.1 13 Sudoeste 24 Sudoeste 0 -- -- 61
2019-08-02 17:00:00 25.3 15 Sudoeste 27 Sudoeste 0 -- -- 61
2019-08-02 16:00:00 25.2 13 Oeste 22 Oeste 0 -- -- 63
2019-08-02 15:00:00 24.7 14 Oeste 22 Noroeste 0 -- -- 63
2019-08-02 14:00:00 24.4 11 Oeste 17 Oeste 0 -- -- 64
2019-08-02 13:00:00 24.1 11 Noroeste 19 Noroeste 0 -- -- 65
2019-08-02 12:00:00 22.9 10 Norte 17 Noroeste 0 -- -- 69
2019-08-02 11:00:00 21.7 5 Nordeste 11 Nordeste 0 -- -- 73
2019-08-02 10:00:00 19.6 3 Este 8 Este 0 -- -- 80
2019-08-02 09:00:00 17.1 3 Este 6 Sudeste 0 -- -- 90
2019-08-02 08:00:00 14.8 3 Este 6 Sudeste 0 -- -- 95
2019-08-02 07:00:00 15.1 3 Sudeste 8 Sudoeste 0 -- -- 94
2019-08-02 06:00:00 15.9 3 Sur 8 Este 0 -- -- 92
2019-08-02 05:00:00 16.5 5 Este 12 Noroeste 0 -- -- 89
2019-08-02 04:00:00 17.8 2 Norte 13 Norte 0 -- -- 86
2019-08-02 03:00:00 18.4 6 Norte 15 Norte 0 -- -- 84
2019-08-02 02:00:00 19 8 Norte 15 Norte 0 -- -- 82
2019-08-02 01:00:00 19.6 7 Norte 19 Norte 0 -- -- 80
2019-08-02 00:00:00 20.2 12 Norte 21 Noroeste 0 -- -- 78
2019-08-01 23:00:00 21.1 9 Norte 21 Nordeste 0 -- -- 74
2019-08-01 22:00:00 22.1 11 Nordeste 30 Noroeste 0 -- -- 71
2019-08-01 21:00:00 24.1 15 Norte 33 Norte 0 -- -- 65
2019-08-01 20:00:00 26 16 Norte 37 Noroeste 0 -- -- 60
2019-08-01 19:00:00 27.6 17 Noroeste 27 Noroeste 0 -- -- 56
2019-08-01 18:00:00 28.3 12 Norte 24 Norte 0 -- -- 51
2019-08-01 17:00:00 28.4 13 Norte 23 Norte 0 -- -- 50
2019-08-01 16:00:00 27.2 14 Noroeste 23 Noroeste 0 -- -- 54
2019-08-01 15:00:00 26.4 13 Norte 23 Norte 0 -- -- 54
2019-08-01 14:00:00 25.3 14 Norte 26 Norte 0 -- -- 57
2019-08-01 13:00:00 23.7 17 Norte 28 Nordeste 0 -- -- 61
2019-08-01 12:00:00 23.6 13 Nordeste 32 Este 0 -- -- 63
2019-08-01 11:00:00 21.9 12 Nordeste 23 Nordeste 0 -- -- 68
2019-08-01 10:00:00 19.8 10 Nordeste 19 Norte 0 -- -- 74
2019-08-01 09:00:00 18.2 5 Norte 14 Norte 0 -- -- 79
2019-08-01 08:00:00 16.7 6 Norte 15 Norte 0 -- -- 84
2019-08-01 07:00:00 16.5 9 Norte 20 Nordeste 0 -- -- 83
2019-08-01 06:00:00 16.5 11 Norte 24 Norte 0 -- -- 83
2019-08-01 05:00:00 16.6 11 Norte 24 Norte 0 -- -- 82
2019-08-01 04:00:00 16.8 14 Norte 27 Norte 0 -- -- 81
2019-08-01 03:00:00 17.3 14 Norte 26 Norte 0 -- -- 78
2019-08-01 02:00:00 17.8 11 Norte 21 Norte 0 -- -- 77
2019-08-01 01:00:00 18.5 5 Norte 19 Nordeste 0 -- -- 74
2019-08-01 00:00:00 19.1 12 Norte 32 Norte 0 -- -- 73
2019-07-31 23:00:00 19.7 12 Nordeste 30 Este 0 -- -- 70
2019-07-31 22:00:00 21 7 Nordeste 30 Nordeste 0 -- -- 61
2019-07-31 21:00:00 22.9 10 Nordeste 31 Nordeste 0 -- -- 51
2019-07-31 20:00:00 24.2 16 Norte 30 Nordeste 0 -- -- 53
2019-07-31 19:00:00 24.3 17 Norte 34 Norte 0 -- -- 53
2019-07-31 18:00:00 25.5 17 Norte 31 Nordeste 0 -- -- 51
2019-07-31 17:00:00 26.4 13 Nordeste 27 Nordeste 0 -- -- 44
2019-07-31 16:00:00 25.4 14 Norte 28 Nordeste 0 -- -- 42
2019-07-31 15:00:00 25.2 14 Nordeste 27 Nordeste 0 -- -- 38
2019-07-31 14:00:00 24.7 7 Norte 28 Este 0 -- -- 42
2019-07-31 13:00:00 22.1 13 Nordeste 29 Nordeste 0 -- -- 50
2019-07-31 12:00:00 19.8 14 Norte 25 Nordeste 0 -- -- 61
2019-07-31 11:00:00 18.3 13 Norte 23 Norte 0 -- -- 63
2019-07-31 10:00:00 16.4 12 Norte 22 Norte 0 -- -- 75
2019-07-31 09:00:00 15.1 5 Nordeste 21 Norte 0 -- -- 77
2019-07-31 08:00:00 14.3 13 Norte 24 Norte 0 -- -- 82
2019-07-31 07:00:00 14 12 Norte 26 Norte 0 -- -- 86
2019-07-31 06:00:00 14 14 Norte 24 Norte 0 -- -- 86
2019-07-31 05:00:00 14.4 9 Norte 17 Nordeste 0 -- -- 84
2019-07-31 04:00:00 15.1 9 Este 23 Nordeste 0 -- -- 79
2019-07-31 03:00:00 15.4 9 Nordeste 20 Nordeste 0 -- -- 77
2019-07-31 02:00:00 15.8 7 Norte 17 Este 0 -- -- 77
2019-07-31 01:00:00 16.4 0 Calma 9 Noroeste 0 -- -- 69
2019-07-31 00:00:00 17.3 4 Noroeste 16 Sudeste 0 -- -- 66
2019-07-30 23:00:00 17.9 9 Nordeste 25 Nordeste 0 -- -- 66
2019-07-30 22:00:00 19.2 13 Norte 30 Noroeste 0 -- -- 62
2019-07-30 21:00:00 20.6 15 Noroeste 32 Noroeste 0 -- -- 56
2019-07-30 20:00:00 22.2 19 Noroeste 31 Noroeste 0 -- -- 51
2019-07-30 19:00:00 22.9 21 Noroeste 32 Noroeste 0 -- -- 52
2019-07-30 18:00:00 23.6 18 Noroeste 29 Noroeste 0 -- -- 49
2019-07-30 17:00:00 23.6 14 Noroeste 23 Noroeste 0 -- -- 46
2019-07-30 16:00:00 22.1 13 Oeste 23 Oeste 0 -- -- 54
2019-07-30 15:00:00 22.1 11 Noroeste 24 Oeste 0 -- -- 55
2019-07-30 14:00:00 21.1 11 Noroeste 20 Noroeste 0 -- -- 60
2019-07-30 13:00:00 20.6 10 Noroeste 16 Noroeste 0 -- -- 59
2019-07-30 12:00:00 19.8 6 Nordeste 12 Nordeste 0 -- -- 63
2019-07-30 11:00:00 18.4 5 Norte 9 Nordeste 0 -- -- 73
2019-07-30 10:00:00 16.1 4 Oeste 7 Noroeste 0 -- -- 87
2019-07-30 09:00:00 14.4 3 Este 9 Sudeste 0 -- -- 91
2019-07-30 08:00:00 12.4 4 Sudeste 8 Sudeste 0 -- -- 96
2019-07-30 07:00:00 12.5 5 Sudeste 8 Sudeste 0 -- -- 96
2019-07-30 06:00:00 12.8 3 Este 6 Este 0 -- -- 94
2019-07-30 05:00:00 13.4 2 Este 6 Este 0 -- -- 92
2019-07-30 04:00:00 14.1 3 Sudeste 6 Sudeste 0 -- -- 91
2019-07-30 03:00:00 15.1 0 Calma 6 Sur 0 -- -- 88
2019-07-30 02:00:00 15 2 Sudeste 6 Sur 0 -- -- 88
2019-07-30 01:00:00 15.9 3 Sudeste 6 Noroeste 0 -- -- 84
2019-07-30 00:00:00 17.4 6 Noroeste 15 Noroeste 0 -- -- 77
2019-07-29 23:00:00 17.8 7 Noroeste 17 Noroeste 0 -- -- 76
2019-07-29 22:00:00 18.5 15 Noroeste 25 Noroeste 0 -- -- 71
2019-07-29 21:00:00 19.8 15 Noroeste 28 Oeste 0 -- -- 68
2019-07-29 20:00:00 20.9 17 Noroeste 31 Oeste 0 -- -- 64
2019-07-29 19:00:00 19.9 23 Oeste 37 Noroeste 0 -- -- 71
2019-07-29 18:00:00 21.1 17 Oeste 32 Oeste 0 -- -- 65
2019-07-29 17:00:00 21.3 22 Oeste 35 Oeste 0 -- -- 64
2019-07-29 16:00:00 21.1 24 Oeste 35 Oeste 0 -- -- 64
2019-07-29 15:00:00 20.6 17 Oeste 36 Oeste 0 -- -- 65
2019-07-29 14:00:00 20.6 16 Oeste 32 Oeste 0 -- -- 67
2019-07-29 13:00:00 20.1 18 Oeste 31 Oeste 0 -- -- 71
2019-07-29 12:00:00 18.8 13 Oeste 45 Oeste 1.4 -- -- 83
2019-07-29 11:00:00 19.4 13 Oeste 28 Oeste 0 -- -- 76
2019-07-29 10:00:00 18.8 11 Oeste 19 Oeste 0 -- -- 80
2019-07-29 09:00:00 18.1 8 Oeste 17 Sudoeste 0 -- -- 84
2019-07-29 08:00:00 17.3 7 Oeste 18 Sudoeste 0 -- -- 88
2019-07-29 07:00:00 17.6 9 Sudoeste 18 Oeste 0 -- -- 86
2019-07-29 06:00:00 17.8 8 Oeste 15 Sudoeste 0 -- -- 90
2019-07-29 05:00:00 17.7 9 Sudoeste 21 Sudoeste 0 -- -- 95
2019-07-29 04:00:00 17.4 12 Sudoeste 32 Sur 0.4 -- -- 98
2019-07-29 03:00:00 18 15 Sudoeste 32 Sudoeste 0 -- -- 94
2019-07-29 02:00:00 17.9 12 Sudoeste 30 Sur 0.2 -- -- 94
2019-07-29 01:00:00 17.5 14 Sur 27 Sudoeste 0.8 -- -- 96
2019-07-29 00:00:00 18.7 8 Sudoeste 20 Sur 0 -- -- 87
2019-07-28 23:00:00 18.6 7 Sur 18 Sur 0 -- -- 85
2019-07-28 22:00:00 18.7 9 Sudoeste 19 Sudoeste 0 -- -- 84
2019-07-28 21:00:00 19.9 12 Sudoeste 27 Sudoeste 0 -- -- 78
2019-07-28 20:00:00 21 12 Oeste 24 Oeste 0 -- -- 72
2019-07-28 19:00:00 21.8 13 Sudoeste 24 Oeste 0 -- -- 63
2019-07-28 18:00:00 22.3 13 Oeste 26 Oeste 0 -- -- 58
2019-07-28 17:00:00 22.6 14 Sudoeste 23 Sudoeste 0 -- -- 52
2019-07-28 16:00:00 23.1 12 Oeste 24 Oeste 0 -- -- 53
2019-07-28 15:00:00 22.7 14 Oeste 21 Sudoeste 0 -- -- 51
2019-07-28 14:00:00 22.5 11 Oeste 22 Sudoeste 0 -- -- 55
2019-07-28 13:00:00 21.5 9 Oeste 16 Oeste 0 -- -- 60
2019-07-28 12:00:00 20.2 6 Noroeste 12 Noroeste 0 -- -- 73
2019-07-28 11:00:00 18.9 4 Norte 9 Norte 0 -- -- 77
2019-07-28 10:00:00 17.8 4 Este 8 Este 0 -- -- 79
2019-07-28 09:00:00 15.6 4 Sudeste 9 Este 0 -- -- 86
2019-07-28 08:00:00 13.5 0 Calma 5 Sudoeste 0 -- -- 93
2019-07-28 07:00:00 14.3 3 Noroeste 7 Norte 0 -- -- 92
2019-07-28 06:00:00 15 0 Calma 10 Nordeste 0 -- -- 91
2019-07-28 05:00:00 15.6 4 Nordeste 13 Norte 0 -- -- 89
2019-07-28 04:00:00 16.1 3 Nordeste 11 Norte 0 -- -- 88
2019-07-28 03:00:00 16.8 2 Nordeste 17 Nordeste 0 -- -- 84
2019-07-28 02:00:00 17.3 11 Nordeste 21 Nordeste 0 -- -- 81
2019-07-28 01:00:00 17.3 10 Nordeste 20 Nordeste 0 -- -- 83
2019-07-28 00:00:00 18 8 Norte 35 Nordeste 0 -- -- 78
2019-07-27 23:00:00 18.7 9 Nordeste 28 Sudeste 0 -- -- 74
2019-07-26 12:00:00 -- -- -- -- -- -- -- -- --
2019-07-26 11:00:00 -- -- -- -- -- -- -- -- --
2019-07-26 10:00:00 -- -- -- -- -- -- -- -- --
2019-07-26 09:00:00 -- -- -- -- -- -- -- -- --
2019-07-26 08:00:00 15.7 0 Calma 5 Sudeste 0 -- -- 98
2019-07-26 07:00:00 15.9 3 Sudeste 5 Sudeste 0 -- -- 98
2019-07-26 06:00:00 16.3 4 Sudeste 6 Sudeste 0 -- -- 98
2019-07-26 05:00:00 17.1 3 Este 4 Este 0 -- -- 97
2019-07-26 04:00:00 17.6 0 Calma 9 Sudoeste 0 -- -- 98
2019-07-26 03:00:00 17.6 6 Sudoeste 15 Sudoeste 0 -- -- 97
2019-07-26 02:00:00 18 6 Sudoeste 13 Sudoeste 0 -- -- 96
2019-07-26 01:00:00 18.1 6 Sudoeste 14 Sudoeste 0 -- -- 95
2019-07-26 00:00:00 18.4 9 Sudoeste 15 Sudoeste 0 -- -- 94
2019-07-25 23:00:00 18.7 9 Sudoeste 16 Sudoeste 0 -- -- 92
2019-07-25 22:00:00 19.6 9 Sudoeste 22 Sudoeste 0 -- -- 88
2019-07-25 21:00:00 20.6 12 Sudoeste 22 Sudoeste 0 -- -- 82
2019-07-25 20:00:00 21.6 13 Sudoeste 27 Oeste 0 -- -- 77
2019-07-25 19:00:00 21.9 15 Sudoeste 29 Sudoeste 0 -- -- 78
2019-07-25 18:00:00 21.8 16 Sudoeste 26 Oeste 0 -- -- 76
2019-07-25 17:00:00 21.9 13 Sudoeste 26 Sudoeste 0 -- -- 80
2019-07-25 16:00:00 21.5 12 Sudoeste 27 Sudoeste 0 -- -- 84
2019-07-25 15:00:00 20.9 17 Sudoeste 30 Sudoeste 0 -- -- 88
2019-07-25 14:00:00 19.7 14 Sudoeste 24 Sur 0 -- -- 95
2019-07-25 13:00:00 18.8 11 Sudoeste 25 Sudoeste 0.2 -- -- 99
2019-07-25 12:00:00 18.3 15 Sudoeste 36 Sudoeste 2 -- -- 99
2019-07-25 11:00:00 18.9 14 Sudoeste 33 Sudoeste 0.8 -- -- 98
2019-07-25 10:00:00 19.8 15 Sudoeste 29 Sudoeste 0.2 -- -- 97
2019-07-25 09:00:00 20.6 7 Sudoeste 28 Sur 0 -- -- 92
2019-07-25 08:00:00 20 13 Sur 26 Sur 0 -- -- 96
2019-07-25 07:00:00 20.2 10 Sur 25 Sur 0 -- -- 94
2019-07-25 06:00:00 19.8 10 Sur 30 Sur 0.2 -- -- 96
2019-07-25 05:00:00 19.5 11 Sur 25 Sudoeste 0.6 -- -- 97
2019-07-25 04:00:00 19.5 6 Sudoeste 24 Sudoeste 0.2 -- -- 96
2019-07-25 03:00:00 21 10 Sudoeste 19 Sudoeste 0 -- -- 84
2019-07-25 02:00:00 20.5 7 Sudeste 22 Sur 0 -- -- 84
2019-07-25 01:00:00 20.8 9 Sur 24 Sudoeste 0 -- -- 84
2019-07-25 00:00:00 20.7 12 Sudoeste 25 Sudoeste 0 -- -- 86
2019-07-24 23:00:00 20.7 8 Sudoeste 22 Sudoeste 0 -- -- 86
2019-07-24 22:00:00 20.6 13 Sudoeste 24 Sudoeste 0 -- -- 86
2019-07-24 21:00:00 21.6 15 Sudoeste 22 Sudoeste 0 -- -- 79
2019-07-24 20:00:00 23 13 Sudoeste 28 Sudoeste 0 -- -- 75
2019-07-24 19:00:00 24.7 12 Sudoeste 27 Sudoeste 0 -- -- 69
2019-07-24 18:00:00 23.9 15 Sudoeste 32 Oeste 0 -- -- 73
2019-07-24 17:00:00 24.1 14 Oeste 28 Sudoeste 0 -- -- 73
2019-07-24 16:00:00 24 14 Sudoeste 28 Sudoeste 0 -- -- 72
2019-07-24 15:00:00 23.2 13 Oeste 23 Sudoeste 0 -- -- 73
2019-07-24 14:00:00 21.4 12 Oeste 23 Oeste 0 -- -- 80
2019-07-24 13:00:00 21.3 11 Noroeste 18 Oeste 0 -- -- 79
2019-07-24 12:00:00 19.5 11 Noroeste 15 Oeste 0 -- -- 84
2019-07-24 11:00:00 18.5 9 Noroeste 13 Oeste 0 -- -- 88
2019-07-24 10:00:00 17.5 2 Oeste 6 Este 0 -- -- 91
2019-07-24 09:00:00 15.5 3 Sudeste 6 Sur 0 -- -- 98
2019-07-24 08:00:00 14.8 3 Sur 5 Este 0 -- -- 98
2019-07-24 07:00:00 14.9 3 Este 7 Sudeste 0 -- -- 97
2019-07-24 06:00:00 16.2 3 Sur 6 Sudeste 0 -- -- 97
2019-07-24 05:00:00 16 0 Calma 5 Sudeste 0 -- -- 97
2019-07-24 04:00:00 16 0 Calma 4 Sudeste 0 -- -- 95
2019-07-24 03:00:00 16.5 3 Sur 4 Sur 0 -- -- 95
2019-07-24 02:00:00 16.5 0 Calma 4 Sur 0 -- -- 95
2019-07-24 01:00:00 17.3 2 Sudoeste 5 Este 0 -- -- 91
2019-07-24 00:00:00 18 2 Sur 9 Sur 0 -- -- 90